Time;durP1;ratioP1;P1;durP2;ratioP2;P2;SDS_P1;SDS_P2;PMS_P1;PMS_P2;Temp;Humidity;BMP_temperature;BMP_pressure;BME280_temperature;BME280_humidity;BME280_pressure;Samples;Min_cycle;Max_cycle;Signal;HPM_P1;HPM_P2
2023/09/18 00:02:12;;;;;;;9.32;6.95;;;17.30;99.90;;;;;;4943145;29;20211;-78
2023/09/18 00:04:39;;;;;;;10.98;7.13;;;17.20;99.90;;;;;;4943616;29;20207;-79
2023/09/18 00:07:05;;;;;;;8.45;7.03;;;17.30;99.90;;;;;;4941652;29;20230;-79
2023/09/18 00:09:32;;;;;;;8.98;6.57;;;17.40;99.90;;;;;;4941204;29;20700;-77
2023/09/18 00:11:59;;;;;;;8.63;7.15;;;17.40;99.90;;;;;;4937981;29;20210;-78
2023/09/18 00:14:26;;;;;;;11.35;6.35;;;17.60;99.90;;;;;;4942281;28;20208;-78
2023/09/18 00:16:53;;;;;;;7.63;6.65;;;17.60;99.90;;;;;;4947429;29;20223;-79
2023/09/18 00:19:21;;;;;;;7.10;5.80;;;17.60;99.90;;;;;;4938774;28;20203;-77
2023/09/18 00:21:48;;;;;;;9.30;6.85;;;17.50;99.90;;;;;;4947545;29;20657;-78
2023/09/18 00:24:15;;;;;;;8.48;6.18;;;17.20;99.90;;;;;;4947667;28;20213;-79
2023/09/18 00:26:41;;;;;;;8.73;6.25;;;17.10;99.90;;;;;;4942892;29;20229;-80
2023/09/18 00:29:08;;;;;;;8.88;6.95;;;17.20;99.90;;;;;;4940475;29;20213;-80
2023/09/18 00:31:35;;;;;;;7.85;6.72;;;17.30;99.90;;;;;;4943422;29;20299;-78
2023/09/18 00:34:02;;;;;;;10.05;7.10;;;17.30;99.90;;;;;;4943933;29;20213;-78
2023/09/18 00:36:30;;;;;;;9.80;7.15;;;17.30;99.90;;;;;;4946509;28;20199;-78
2023/09/18 00:38:56;;;;;;;9.57;6.90;;;17.20;99.90;;;;;;4939864;29;20243;-77
2023/09/18 00:41:23;;;;;;;8.73;6.47;;;17.00;99.90;;;;;;4942533;29;20216;-77
2023/09/18 00:43:50;;;;;;;10.43;6.80;;;17.10;99.90;;;;;;4938136;29;20221;-78
2023/09/18 00:46:17;;;;;;;8.70;7.10;;;17.10;99.90;;;;;;4944346;29;20225;-78
2023/09/18 00:48:44;;;;;;;9.70;6.93;;;17.10;99.90;;;;;;4940936;29;20233;-78
2023/09/18 00:51:11;;;;;;;8.23;6.55;;;17.00;99.90;;;;;;4939562;29;20210;-78
2023/09/18 00:53:39;;;;;;;8.77;6.97;;;16.90;99.90;;;;;;4941696;29;20241;-78
2023/09/18 00:56:06;;;;;;;11.00;7.03;;;16.80;99.90;;;;;;4942943;29;20213;-76
2023/09/18 00:58:34;;;;;;;8.88;6.72;;;16.80;99.90;;;;;;4940770;29;20238;-77
2023/09/18 01:01:01;;;;;;;11.65;7.40;;;16.90;99.90;;;;;;4942774;29;20210;-77
2023/09/18 01:03:28;;;;;;;11.60;7.43;;;16.90;99.90;;;;;;4940969;28;20207;-78
2023/09/18 01:05:55;;;;;;;14.43;8.10;;;17.00;99.90;;;;;;4942818;29;20231;-78
2023/09/18 01:08:22;;;;;;;11.98;6.80;;;16.90;99.90;;;;;;4938734;29;20605;-78
2023/09/18 01:11:02;;;;;;;10.10;8.00;;;16.90;99.90;;;;;;4938408;29;20207;-78
2023/09/18 01:13:41;;;;;;;9.73;7.35;;;16.70;99.90;;;;;;4935936;29;20242;-77
2023/09/18 01:16:26;;;;;;;9.15;7.30;;;16.90;99.90;;;;;;4943543;29;20207;-78
2023/09/18 01:18:53;;;;;;;8.93;7.13;;;16.90;99.90;;;;;;4943406;29;20223;-80
2023/09/18 01:21:20;;;;;;;11.32;7.28;;;16.80;99.90;;;;;;4943978;28;20554;-79
2023/09/18 01:23:48;;;;;;;12.20;7.68;;;16.90;99.90;;;;;;4940190;29;20333;-80
2023/09/18 01:26:15;;;;;;;11.27;8.10;;;16.90;99.90;;;;;;4947013;28;20607;-79
2023/09/18 01:28:42;;;;;;;11.18;8.40;;;16.80;99.90;;;;;;4939489;29;20223;-79
2023/09/18 01:31:09;;;;;;;10.63;8.35;;;16.70;99.90;;;;;;4948812;28;20202;-79
2023/09/18 01:33:37;;;;;;;11.70;7.63;;;16.70;99.90;;;;;;4945680;29;20213;-79
2023/09/18 01:36:07;;;;;;;10.57;7.85;;;16.70;99.90;;;;;;4948361;29;20198;-80
2023/09/18 01:38:35;;;;;;;11.07;7.97;;;16.60;99.90;;;;;;4945239;29;20298;-78
2023/09/18 01:41:03;;;;;;;12.60;7.53;;;16.80;99.90;;;;;;4942356;29;20207;-78
2023/09/18 01:43:30;;;;;;;13.73;8.45;;;16.80;99.90;;;;;;4937458;29;20266;-78
2023/09/18 01:45:57;;;;;;;9.55;7.38;;;16.90;99.90;;;;;;4944321;29;20211;-80
2023/09/18 01:48:24;;;;;;;12.50;7.43;;;16.80;99.90;;;;;;4942494;28;20241;-78
2023/09/18 01:50:50;;;;;;;13.02;7.55;;;16.60;99.90;;;;;;4940289;29;20221;-80
2023/09/18 01:53:17;;;;;;;10.43;7.18;;;16.50;99.90;;;;;;4940626;28;20289;-79
2023/09/18 01:55:44;;;;;;;8.45;7.05;;;16.50;99.90;;;;;;4944619;29;20223;-79
2023/09/18 01:58:14;;;;;;;7.70;6.20;;;16.60;99.90;;;;;;4943843;28;20656;-79
2023/09/18 02:00:41;;;;;;;11.85;7.18;;;16.50;99.90;;;;;;4941824;29;20808;-78
2023/09/18 02:03:07;;;;;;;10.43;6.45;;;16.70;99.90;;;;;;4943500;29;20579;-78
2023/09/18 02:05:34;;;;;;;10.30;6.90;;;16.70;99.90;;;;;;4940477;29;20607;-78
2023/09/18 02:08:02;;;;;;;9.18;6.35;;;16.70;99.90;;;;;;4940330;29;20223;-79
2023/09/18 02:10:29;;;;;;;8.43;6.72;;;16.60;99.90;;;;;;4937859;29;20207;-79
2023/09/18 02:12:56;;;;;;;9.98;6.85;;;16.60;99.90;;;;;;4944067;29;20682;-79
2023/09/18 02:15:24;;;;;;;8.82;6.95;;;16.70;99.90;;;;;;4939961;29;20209;-79
2023/09/18 02:17:51;;;;;;;8.10;6.53;;;16.70;99.90;;;;;;4937996;29;20583;-78
2023/09/18 02:20:18;;;;;;;9.18;6.93;;;16.70;99.90;;;;;;4941223;29;20658;-79
2023/09/18 02:22:46;;;;;;;8.35;6.88;;;16.40;99.90;;;;;;4943628;29;20211;-78
2023/09/18 02:25:13;;;;;;;8.52;6.82;;;16.30;99.90;;;;;;4937628;29;20210;-79
2023/09/18 02:27:40;;;;;;;10.40;7.03;;;16.50;99.90;;;;;;4942338;29;20231;-79
2023/09/18 02:30:09;;;;;;;9.63;6.32;;;16.60;99.90;;;;;;4945177;29;20229;-79
2023/09/18 02:32:37;;;;;;;10.35;6.40;;;16.60;99.90;;;;;;4941088;29;20211;-79
2023/09/18 02:35:07;;;;;;;7.85;6.25;;;16.70;99.90;;;;;;4940723;29;20233;-79
2023/09/18 02:37:33;;;;;;;8.20;6.80;;;16.50;99.90;;;;;;4936883;29;20258;-78
2023/09/18 02:40:00;;;;;;;10.43;6.85;;;16.20;99.90;;;;;;4940028;29;20207;-79
2023/09/18 02:42:27;;;;;;;12.02;9.05;;;16.20;99.90;;;;;;4943222;28;20214;-79
2023/09/18 02:44:54;;;;;;;9.50;6.97;;;16.20;99.90;;;;;;4943051;29;20709;-76
2023/09/18 02:47:20;;;;;;;8.23;6.70;;;16.20;99.90;;;;;;4943428;28;20222;-78
2023/09/18 02:49:48;;;;;;;7.70;6.57;;;16.10;99.90;;;;;;4938961;29;20302;-78
2023/09/18 02:52:15;;;;;;;8.05;6.78;;;16.00;99.90;;;;;;4931496;29;20211;-79
2023/09/18 02:54:42;;;;;;;7.68;6.63;;;16.00;99.90;;;;;;4940032;29;20577;-78
2023/09/18 02:57:09;;;;;;;11.35;6.47;;;16.00;99.90;;;;;;4941326;29;20310;-79
2023/09/18 02:59:36;;;;;;;8.30;7.15;;;16.00;99.90;;;;;;4940355;29;20211;-79
2023/09/18 03:02:03;;;;;;;9.27;6.95;;;16.00;99.90;;;;;;4943065;29;20242;-79
2023/09/18 03:04:30;;;;;;;9.45;7.60;;;16.00;99.90;;;;;;4935669;29;20207;-79
2023/09/18 03:06:58;;;;;;;12.20;8.15;;;16.20;99.90;;;;;;4937753;29;20234;-78
2023/09/18 03:09:25;;;;;;;9.15;6.95;;;16.30;99.90;;;;;;4940559;29;20206;-77
2023/09/18 03:11:52;;;;;;;9.32;7.15;;;16.20;99.90;;;;;;4930140;29;20214;-77
2023/09/18 03:14:19;;;;;;;11.43;7.55;;;16.30;99.90;;;;;;4938247;28;20203;-76
2023/09/18 03:16:45;;;;;;;11.57;7.57;;;16.30;99.90;;;;;;4938362;29;20723;-79
2023/09/18 03:19:12;;;;;;;10.88;8.15;;;16.40;99.90;;;;;;4940264;29;20210;-77
2023/09/18 03:21:39;;;;;;;10.55;7.32;;;16.50;99.90;;;;;;4930903;29;20209;-77
2023/09/18 03:24:08;;;;;;;10.15;7.53;;;16.60;99.90;;;;;;4940087;29;20302;-77
2023/09/18 03:26:34;;;;;;;12.02;7.78;;;16.60;99.90;;;;;;4942257;29;20294;-78
2023/09/18 03:29:01;;;;;;;9.32;7.13;;;16.60;99.90;;;;;;4943931;29;20214;-78
2023/09/18 03:31:29;;;;;;;9.88;7.07;;;16.50;99.90;;;;;;4941723;28;20275;-77
2023/09/18 03:33:55;;;;;;;7.80;6.85;;;16.50;99.90;;;;;;4939250;29;20211;-78
2023/09/18 03:36:23;;;;;;;7.10;6.28;;;16.60;99.90;;;;;;4940009;29;20210;-78
2023/09/18 03:38:49;;;;;;;11.52;7.45;;;16.20;99.90;;;;;;4940136;29;20217;-77
2023/09/18 03:41:17;;;;;;;10.48;7.43;;;16.10;99.90;;;;;;4942914;29;20198;-77
2023/09/18 03:43:44;;;;;;;11.48;7.80;;;16.20;99.90;;;;;;4939936;29;20710;-77
2023/09/18 03:46:11;;;;;;;12.30;8.07;;;16.30;99.90;;;;;;4940539;29;20217;-78
2023/09/18 03:48:37;;;;;;;11.85;7.82;;;16.50;99.90;;;;;;4937629;29;20321;-78
2023/09/18 03:51:05;;;;;;;13.18;7.88;;;16.50;99.90;;;;;;4942942;29;20207;-78
2023/09/18 03:53:33;;;;;;;16.73;7.97;;;16.50;99.90;;;;;;4939382;29;20211;-77
2023/09/18 03:55:59;;;;;;;12.73;7.50;;;16.40;99.90;;;;;;4937742;29;20241;-77
2023/09/18 03:58:28;;;;;;;16.63;8.32;;;16.50;99.90;;;;;;4939507;28;20314;-77
2023/09/18 04:00:54;;;;;;;15.13;8.02;;;16.60;99.90;;;;;;4940573;29;20211;-76
2023/09/18 04:03:21;;;;;;;12.35;7.90;;;16.60;99.90;;;;;;4939755;29;20286;-76
2023/09/18 04:05:48;;;;;;;14.23;8.30;;;16.60;99.90;;;;;;4940447;29;20215;-77
2023/09/18 04:08:15;;;;;;;12.00;7.18;;;16.70;99.90;;;;;;4936057;29;20748;-77
2023/09/18 04:10:41;;;;;;;12.50;7.38;;;16.60;99.90;;;;;;4940831;29;20666;-78
2023/09/18 04:13:09;;;;;;;15.13;7.38;;;16.70;99.90;;;;;;4938946;29;20211;-78
2023/09/18 04:15:38;;;;;;;10.52;7.13;;;16.60;99.90;;;;;;4940473;29;20199;-77
2023/09/18 04:18:05;;;;;;;16.38;7.78;;;16.50;99.90;;;;;;4938860;29;20229;-78
2023/09/18 04:20:32;;;;;;;15.20;7.85;;;16.40;99.90;;;;;;4937413;29;20207;-78
2023/09/18 04:23:19;;;;;;;18.55;8.10;;;16.50;99.90;;;;;;4938252;29;20207;-78
2023/09/18 04:25:46;;;;;;;13.52;7.10;;;16.50;99.90;;;;;;4934099;29;20215;-77
2023/09/18 04:28:13;;;;;;;17.02;7.90;;;16.60;99.90;;;;;;4938861;29;20258;-78
2023/09/18 04:30:41;;;;;;;20.80;8.27;;;16.60;99.90;;;;;;4938870;29;20726;-78
2023/09/18 04:33:08;;;;;;;16.52;7.80;;;16.60;99.90;;;;;;4939201;29;20211;-78
2023/09/18 04:35:35;;;;;;;20.65;7.97;;;16.70;99.90;;;;;;4937824;29;20211;-78
2023/09/18 04:38:02;;;;;;;18.80;7.80;;;16.70;99.90;;;;;;4938238;29;20675;-78
2023/09/18 04:40:31;;;;;;;16.67;7.43;;;16.70;99.90;;;;;;4937852;28;20203;-78
2023/09/18 04:42:59;;;;;;;17.40;8.10;;;16.80;99.90;;;;;;4939654;29;20218;-78
2023/09/18 04:45:25;;;;;;;18.05;7.53;;;16.70;99.90;;;;;;4937806;29;20207;-78
2023/09/18 04:47:54;;;;;;;15.55;7.47;;;16.80;99.90;;;;;;4938723;29;20231;-77
2023/09/18 04:50:21;;;;;;;17.95;7.75;;;16.80;99.90;;;;;;4938016;29;20206;-77
2023/09/18 04:52:47;;;;;;;30.13;9.82;;;16.80;99.90;;;;;;4936681;29;20209;-77
2023/09/18 04:55:15;;;;;;;22.98;9.25;;;16.70;99.90;;;;;;4936632;29;20302;-78
2023/09/18 04:57:42;;;;;;;14.35;7.88;;;16.70;99.90;;;;;;4926958;29;20224;-78
2023/09/18 05:00:12;;;;;;;21.27;8.38;;;16.70;99.90;;;;;;4934212;29;20207;-78
2023/09/18 05:02:39;;;;;;;11.23;7.53;;;16.70;99.90;;;;;;4937011;29;20579;-78
2023/09/18 05:05:09;;;;;;;13.35;7.70;;;16.70;99.90;;;;;;4936116;29;20211;-79
2023/09/18 05:07:36;;;;;;;11.63;8.13;;;16.70;99.90;;;;;;4937042;29;20230;-78
2023/09/18 05:10:04;;;;;;;11.30;7.60;;;16.70;99.90;;;;;;4937420;29;20213;-78
2023/09/18 05:12:31;;;;;;;12.60;8.63;;;16.70;99.90;;;;;;4925953;29;20207;-78
2023/09/18 05:14:59;;;;;;;13.82;8.10;;;16.70;99.90;;;;;;4936908;29;20211;-78
2023/09/18 05:17:42;;;;;;;11.57;8.55;;;16.80;99.90;;;;;;4936159;29;20269;-78
2023/09/18 05:20:13;;;;;;;10.80;8.38;;;16.70;99.90;;;;;;4936494;29;20211;-78
2023/09/18 05:22:41;;;;;;;11.02;7.90;;;16.80;99.90;;;;;;4936575;29;20207;-77
2023/09/18 05:25:08;;;;;;;10.73;8.38;;;16.90;99.90;;;;;;4935213;29;20279;-78
2023/09/18 05:27:35;;;;;;;11.35;8.20;;;16.90;99.90;;;;;;4936302;29;20219;-79
2023/09/18 05:30:01;;;;;;;13.48;7.53;;;17.10;99.90;;;;;;4933859;29;20217;-79
2023/09/18 05:32:28;;;;;;;8.88;7.32;;;17.10;99.90;;;;;;4937142;29;20675;-79
2023/09/18 05:34:55;;;;;;;12.45;7.25;;;17.20;99.90;;;;;;4937334;29;20299;-78
2023/09/18 05:37:23;;;;;;;12.13;6.72;;;17.40;99.90;;;;;;4937047;29;20261;-77
2023/09/18 05:39:50;;;;;;;10.52;7.70;;;17.40;99.90;;;;;;4937200;29;20298;-78
2023/09/18 05:42:17;;;;;;;11.77;7.30;;;17.40;99.90;;;;;;4932326;29;20215;-78
2023/09/18 05:44:44;;;;;;;11.48;8.23;;;17.50;99.90;;;;;;4937040;29;20218;-79
2023/09/18 05:47:11;;;;;;;10.68;7.00;;;17.60;99.90;;;;;;4935787;29;20294;-78
2023/09/18 05:49:37;;;;;;;9.88;7.20;;;17.60;99.90;;;;;;4946809;29;20418;-77
2023/09/18 05:52:05;;;;;;;10.65;7.20;;;17.70;99.90;;;;;;4951701;29;20221;-78
2023/09/18 05:54:33;;;;;;;10.82;7.07;;;18.00;99.90;;;;;;4941392;29;20206;-78
2023/09/18 05:57:01;;;;;;;9.18;6.82;;;18.50;99.90;;;;;;4949540;29;20230;-77
2023/09/18 05:59:28;;;;;;;7.85;6.05;;;19.00;99.90;;;;;;4950344;29;20693;-78
2023/09/18 06:01:55;;;;;;;9.57;6.88;;;19.20;99.90;;;;;;4941093;28;20211;-77
2023/09/18 06:04:23;;;;;;;8.18;6.40;;;19.40;99.90;;;;;;4932508;29;20215;-78
2023/09/18 06:06:51;;;;;;;9.00;6.15;;;19.50;99.90;;;;;;4942093;29;20458;-77
2023/09/18 06:09:18;;;;;;;7.47;5.90;;;19.80;99.90;;;;;;4946295;28;20222;-78
2023/09/18 06:11:46;;;;;;;7.15;5.63;;;20.00;99.90;;;;;;4949701;28;20217;-79
2023/09/18 06:14:13;;;;;;;8.10;5.60;;;20.10;99.90;;;;;;4952187;29;20290;-79
2023/09/18 06:16:39;;;;;;;6.97;5.57;;;20.40;99.90;;;;;;4947069;28;20210;-78
2023/09/18 06:19:06;;;;;;;6.93;5.78;;;20.30;99.90;;;;;;4947068;28;20203;-78
2023/09/18 06:21:33;;;;;;;6.70;5.30;;;20.50;99.90;;;;;;4946391;29;20206;-78
2023/09/18 06:24:00;;;;;;;5.85;5.28;;;20.50;99.90;;;;;;4932736;29;20213;-78
2023/09/18 06:26:27;;;;;;;9.95;6.07;;;20.80;99.90;;;;;;4943092;29;20237;-77
2023/09/18 06:28:55;;;;;;;5.97;5.38;;;20.90;99.90;;;;;;4936031;29;20223;-77
2023/09/18 06:31:23;;;;;;;7.97;6.07;;;21.00;99.90;;;;;;4943808;29;20207;-77
2023/09/18 06:33:50;;;;;;;6.82;5.40;;;21.00;99.90;;;;;;4944004;29;20258;-77
2023/09/18 06:36:16;;;;;;;10.00;5.40;;;21.00;99.90;;;;;;4935672;29;20213;-78
2023/09/18 06:38:43;;;;;;;6.32;5.53;;;20.90;99.90;;;;;;4940328;29;20748;-77
2023/09/18 06:41:10;;;;;;;7.72;5.35;;;20.90;99.90;;;;;;4952847;28;20209;-78
2023/09/18 06:43:37;;;;;;;6.30;5.70;;;20.80;99.90;;;;;;4942810;28;20202;-77
2023/09/18 06:46:07;;;;;;;7.07;5.80;;;20.80;99.90;;;;;;4943151;29;20221;-78
2023/09/18 06:48:34;;;;;;;6.70;5.28;;;20.90;99.90;;;;;;4936233;29;20222;-78
2023/09/18 06:51:01;;;;;;;6.18;5.53;;;21.00;99.90;;;;;;4947107;29;20217;-78
2023/09/18 06:53:28;;;;;;;6.53;5.28;;;21.00;99.90;;;;;;4944933;29;20217;-77
2023/09/18 06:55:55;;;;;;;6.22;5.18;;;20.90;99.90;;;;;;4945355;28;20211;-78
2023/09/18 06:58:22;;;;;;;6.60;5.10;;;20.90;99.90;;;;;;4943656;28;20227;-79
2023/09/18 07:00:50;;;;;;;9.25;5.22;;;21.20;99.90;;;;;;4952405;28;20235;-79
2023/09/18 07:03:18;;;;;;;7.70;4.93;;;21.20;99.90;;;;;;4939491;29;20674;-78
2023/09/18 07:05:46;;;;;;;7.82;5.32;;;21.30;99.90;;;;;;4946781;29;20211;-77
2023/09/18 07:08:13;;;;;;;8.60;5.60;;;21.30;99.90;;;;;;4943420;29;20736;-78
2023/09/18 07:10:40;;;;;;;5.95;4.82;;;21.20;99.90;;;;;;4944811;28;20237;-78
2023/09/18 07:13:07;;;;;;;7.22;4.90;;;21.30;99.90;;;;;;4939956;29;20225;-76
2023/09/18 07:15:34;;;;;;;6.95;4.75;;;21.20;99.90;;;;;;4944754;29;20213;-76
2023/09/18 07:18:01;;;;;;;8.05;5.20;;;21.30;99.90;;;;;;4940516;29;20227;-76
2023/09/18 07:20:30;;;;;;;6.13;4.85;;;21.40;99.90;;;;;;4953120;29;20602;-76
2023/09/18 07:22:57;;;;;;;5.32;4.63;;;21.40;99.90;;;;;;4955870;28;20753;-77
2023/09/18 07:25:24;;;;;;;7.65;4.88;;;21.40;99.90;;;;;;4934780;28;20219;-77
2023/09/18 07:27:51;;;;;;;6.88;4.50;;;21.50;99.90;;;;;;4939803;29;20226;-77
2023/09/18 07:30:19;;;;;;;6.70;4.93;;;21.50;99.90;;;;;;4939574;29;20713;-77
2023/09/18 07:32:46;;;;;;;6.22;4.97;;;21.50;99.90;;;;;;4946035;29;20214;-78
2023/09/18 07:35:14;;;;;;;6.70;4.82;;;21.40;99.90;;;;;;4947982;29;20207;-77
2023/09/18 07:37:44;;;;;;;5.82;5.13;;;21.40;99.90;;;;;;4945254;28;20317;-78
2023/09/18 07:40:11;;;;;;;7.05;5.20;;;21.60;99.90;;;;;;4941543;29;20250;-77
2023/09/18 07:42:38;;;;;;;7.93;5.18;;;21.50;99.90;;;;;;4941912;29;20585;-78
2023/09/18 07:45:06;;;;;;;7.10;4.93;;;21.40;99.90;;;;;;4942899;28;20275;-77
2023/09/18 07:47:32;;;;;;;7.30;4.68;;;21.50;99.90;;;;;;4946515;29;20669;-77
2023/09/18 07:50:00;;;;;;;6.38;4.53;;;21.60;99.90;;;;;;4948788;28;20226;-78
2023/09/18 07:52:27;;;;;;;6.50;4.70;;;21.70;99.90;;;;;;4947671;28;20299;-78
2023/09/18 07:54:55;;;;;;;7.22;3.90;;;21.70;99.90;;;;;;4947573;28;20210;-77
2023/09/18 07:57:22;;;;;;;8.40;4.00;;;21.80;99.90;;;;;;4944785;29;20231;-78
2023/09/18 07:59:49;;;;;;;7.10;4.43;;;21.90;99.90;;;;;;4948760;29;20719;-77
2023/09/18 08:02:17;;;;;;;6.82;4.70;;;21.90;99.90;;;;;;4951285;29;20294;-78
2023/09/18 08:04:44;;;;;;;10.98;5.03;;;21.90;99.90;;;;;;4946381;29;20210;-77
2023/09/18 08:07:12;;;;;;;6.82;4.25;;;21.90;99.90;;;;;;4952414;29;20233;-77
2023/09/18 08:09:39;;;;;;;6.95;4.75;;;22.10;99.90;;;;;;4944024;29;20274;-77
2023/09/18 08:12:08;;;;;;;6.05;4.47;;;22.20;99.90;;;;;;4938684;29;20673;-77
2023/09/18 08:14:36;;;;;;;8.98;4.72;;;22.30;99.90;;;;;;4944918;29;20225;-78
2023/09/18 08:17:04;;;;;;;7.28;4.68;;;22.40;99.90;;;;;;4944143;29;20756;-76
2023/09/18 08:19:32;;;;;;;6.57;3.78;;;22.30;99.90;;;;;;4946368;28;20206;-77
2023/09/18 08:22:00;;;;;;;9.70;4.50;;;22.30;99.90;;;;;;4943789;29;20648;-78
2023/09/18 08:24:27;;;;;;;9.43;4.60;;;22.30;99.90;;;;;;4944269;29;20203;-77
2023/09/18 08:26:55;;;;;;;9.05;4.38;;;22.40;99.90;;;;;;4937893;29;20309;-77
2023/09/18 08:29:23;;;;;;;7.47;4.45;;;22.30;99.90;;;;;;4943575;29;20277;-78
2023/09/18 08:31:51;;;;;;;8.93;4.22;;;22.50;99.90;;;;;;4941870;29;20202;-79
2023/09/18 08:34:17;;;;;;;9.80;4.43;;;22.50;99.90;;;;;;4934097;28;20214;-78
2023/09/18 08:36:44;;;;;;;7.40;3.80;;;22.60;99.90;;;;;;4937433;29;20273;-78
2023/09/18 08:39:12;;;;;;;8.23;4.60;;;22.70;99.90;;;;;;4941389;29;20334;-77
2023/09/18 08:41:42;;;;;;;7.70;4.50;;;22.70;99.90;;;;;;4943067;29;20210;-78
2023/09/18 08:44:09;;;;;;;8.40;4.22;;;22.70;99.90;;;;;;4949022;29;20218;-77
2023/09/18 08:46:38;;;;;;;9.25;4.32;;;22.80;99.90;;;;;;4944821;29;20243;-79
2023/09/18 08:49:06;;;;;;;9.63;3.85;;;22.80;99.90;;;;;;4937334;28;20754;-78
2023/09/18 08:51:34;;;;;;;9.18;4.03;;;22.90;99.90;;;;;;4938306;29;20658;-77
2023/09/18 08:54:02;;;;;;;7.03;3.70;;;22.90;99.90;;;;;;4952331;28;20265;-78
2023/09/18 08:56:31;;;;;;;7.53;3.47;;;22.90;99.90;;;;;;4937114;28;20305;-78
2023/09/18 08:58:59;;;;;;;9.68;4.10;;;23.00;99.90;;;;;;4941588;29;20217;-77
2023/09/18 09:01:26;;;;;;;10.68;3.90;;;23.10;99.90;;;;;;4949972;28;20589;-77
2023/09/18 09:03:55;;;;;;;7.60;3.80;;;23.10;99.90;;;;;;4938928;29;20661;-78
2023/09/18 09:06:22;;;;;;;5.50;3.75;;;23.10;99.90;;;;;;4936680;29;20262;-77
2023/09/18 09:08:48;;;;;;;7.45;4.07;;;23.10;99.90;;;;;;4940724;29;20222;-77
2023/09/18 09:11:15;;;;;;;6.65;3.58;;;23.10;99.90;;;;;;4942067;28;20743;-77
2023/09/18 09:13:42;;;;;;;7.65;3.50;;;23.20;99.90;;;;;;4940286;29;20239;-79
2023/09/18 09:16:12;;;;;;;7.32;3.60;;;23.20;99.90;;;;;;4933808;29;20203;-77
2023/09/18 09:18:49;;;;;;;9.65;4.22;;;23.20;99.90;;;;;;4944152;29;20227;-77
2023/09/18 09:21:17;;;;;;;7.53;3.65;;;23.30;99.90;;;;;;4938355;28;20207;-77
2023/09/18 09:23:50;;;;;;;6.90;3.60;;;23.30;99.90;;;;;;4939271;29;20222;-79
2023/09/18 09:26:18;;;;;;;13.35;4.38;;;23.30;99.90;;;;;;4943370;28;20729;-78
2023/09/18 09:28:45;;;;;;;10.25;3.80;;;23.20;99.90;;;;;;4942043;29;20591;-78
2023/09/18 09:31:13;;;;;;;10.55;3.85;;;23.20;99.90;;;;;;4947739;29;20846;-77
2023/09/18 09:33:52;;;;;;;6.75;3.40;;;23.20;99.90;;;;;;4943855;29;20290;-78
2023/09/18 09:36:20;;;;;;;9.18;3.38;;;23.20;99.90;;;;;;4942457;28;20202;-79
2023/09/18 09:38:47;;;;;;;10.50;3.60;;;23.10;99.90;;;;;;4936129;29;20225;-78
2023/09/18 09:41:15;;;;;;;6.75;3.25;;;23.20;99.90;;;;;;4938284;29;20206;-77
2023/09/18 09:43:44;;;;;;;6.28;3.10;;;23.10;99.90;;;;;;4942151;29;20633;-77
2023/09/18 09:46:18;;;;;;;8.02;3.50;;;23.10;99.90;;;;;;4940214;29;20515;-77
2023/09/18 09:49:01;;;;;;;13.18;3.53;;;23.10;99.90;;;;;;4939064;29;20230;-78
2023/09/18 09:51:29;;;;;;;8.60;3.38;;;22.90;99.90;;;;;;4937006;28;20203;-77
2023/09/18 09:53:58;;;;;;;7.60;3.15;;;22.90;99.90;;;;;;4942076;29;20258;-77
2023/09/18 09:56:44;;;;;;;7.40;3.17;;;22.90;99.90;;;;;;4934513;29;20317;-78
2023/09/18 09:59:13;;;;;;;7.20;2.83;;;22.90;99.90;;;;;;4934507;29;20215;-76
2023/09/18 10:01:41;;;;;;;6.93;3.38;;;22.80;99.90;;;;;;4942391;29;20234;-77
2023/09/18 10:04:12;;;;;;;6.03;2.88;;;22.80;99.90;;;;;;4940956;29;20206;-77
2023/09/18 10:06:44;;;;;;;6.78;3.55;;;22.90;99.90;;;;;;4942804;29;20302;-77
2023/09/18 10:09:12;;;;;;;7.43;3.20;;;23.00;99.90;;;;;;4943440;28;20222;-77
2023/09/18 10:11:44;;;;;;;8.25;3.10;;;23.00;99.90;;;;;;4933878;29;20218;-78
2023/09/18 10:14:13;;;;;;;5.47;3.20;;;23.10;99.90;;;;;;4936137;29;20203;-77
2023/09/18 10:16:44;;;;;;;7.57;3.45;;;23.10;99.90;;;;;;4941619;29;20209;-77
2023/09/18 10:19:21;;;;;;;8.45;3.22;;;23.20;99.90;;;;;;4948505;28;20598;-77
2023/09/18 10:22:00;;;;;;;8.90;3.25;;;23.20;99.90;;;;;;4940408;29;20217;-77
2023/09/18 10:24:30;;;;;;;10.75;2.97;;;22.90;99.90;;;;;;4933099;29;20302;-78
2023/09/18 10:27:00;;;;;;;3.85;2.45;;;23.10;99.90;;;;;;4936705;29;20254;-78
2023/09/18 10:29:29;;;;;;;6.65;3.17;;;23.20;99.90;;;;;;4941120;29;20227;-77
2023/09/18 10:31:56;;;;;;;6.45;3.30;;;23.10;99.90;;;;;;4939975;29;20210;-76
2023/09/18 10:34:25;;;;;;;9.18;2.95;;;23.20;99.90;;;;;;4937243;28;20679;-76
2023/09/18 10:36:54;;;;;;;9.68;3.15;;;23.30;99.90;;;;;;4935140;29;20227;-77
2023/09/18 10:39:23;;;;;;;7.43;2.83;;;23.30;99.90;;;;;;4936026;29;20730;-77
2023/09/18 10:41:53;;;;;;;5.78;2.42;;;23.40;99.90;;;;;;4943091;29;20214;-78
2023/09/18 10:44:21;;;;;;;6.50;2.90;;;23.30;99.90;;;;;;4946254;29;20234;-78
2023/09/18 10:46:48;;;;;;;5.13;2.80;;;23.20;99.90;;;;;;4939464;29;20314;-77
2023/09/18 10:49:16;;;;;;;6.05;2.60;;;23.20;99.90;;;;;;4939071;29;20270;-78
2023/09/18 10:51:44;;;;;;;7.15;3.20;;;23.10;99.90;;;;;;4943284;29;20294;-77
2023/09/18 10:54:16;;;;;;;6.32;2.75;;;23.20;99.90;;;;;;4934568;29;20210;-80
2023/09/18 10:56:43;;;;;;;7.05;2.83;;;23.20;99.90;;;;;;4942198;29;20211;-77
2023/09/18 10:59:10;;;;;;;4.55;2.50;;;23.20;99.90;;;;;;4934487;29;20279;-78
2023/09/18 11:01:37;;;;;;;8.60;3.10;;;23.20;99.90;;;;;;4940808;29;20209;-78
2023/09/18 11:04:07;;;;;;;6.45;3.00;;;23.20;99.90;;;;;;4943526;28;20214;-79
2023/09/18 11:07:04;;;;;;;4.88;2.35;;;23.20;99.90;;;;;;4936784;29;20499;-78
2023/09/18 11:09:41;;;;;;;7.13;3.33;;;23.20;99.90;;;;;;4940908;28;20238;-77
2023/09/18 11:12:11;;;;;;;5.82;3.55;;;23.30;99.90;;;;;;4933050;29;20203;-78
2023/09/18 11:14:49;;;;;;;7.82;3.05;;;23.20;99.90;;;;;;4944191;29;20327;-77
2023/09/18 11:17:34;;;;;;;7.78;2.92;;;23.30;99.90;;;;;;4943491;29;20648;-77
2023/09/18 11:20:11;;;;;;;4.15;2.55;;;23.50;99.90;;;;;;4937800;29;20207;-77
2023/09/18 11:22:39;;;;;;;4.63;2.35;;;23.50;99.90;;;;;;4939853;29;20199;-79
2023/09/18 11:25:35;;;;;;;7.03;2.85;;;23.60;99.90;;;;;;4935548;29;20227;-78
2023/09/18 11:28:03;;;;;;;6.07;2.80;;;23.60;99.90;;;;;;4946453;28;20222;-77
2023/09/18 11:30:30;;;;;;;7.63;2.70;;;23.90;99.90;;;;;;4941643;28;20231;-77
2023/09/18 11:32:57;;;;;;;5.28;2.60;;;24.00;99.90;;;;;;4935104;29;20205;-78
2023/09/18 11:35:26;;;;;;;5.28;2.80;;;24.00;99.90;;;;;;4942451;29;20208;-77
2023/09/18 11:38:10;;;;;;;5.13;2.28;;;24.00;99.90;;;;;;4945354;29;20235;-77
2023/09/18 11:40:42;;;;;;;8.18;2.88;;;24.10;99.90;;;;;;4932038;29;20207;-79
2023/09/18 11:43:29;;;;;;;8.55;2.80;;;24.00;99.90;;;;;;4938157;29;20681;-77
2023/09/18 11:45:57;;;;;;;6.18;2.70;;;23.90;99.90;;;;;;4942268;29;20298;-79
2023/09/18 11:48:29;;;;;;;7.45;2.60;;;23.80;99.90;;;;;;4947215;28;20305;-79
2023/09/18 11:50:58;;;;;;;8.13;3.00;;;23.50;99.90;;;;;;4947579;29;20757;-78
2023/09/18 11:53:27;;;;;;;6.28;2.45;;;23.60;99.90;;;;;;4946158;29;20214;-78
2023/09/18 11:55:56;;;;;;;7.93;3.10;;;23.50;99.90;;;;;;4945880;29;20233;-78
2023/09/18 11:58:23;;;;;;;4.22;2.83;;;23.40;99.90;;;;;;4946441;29;20226;-78
2023/09/18 12:00:50;;;;;;;11.38;3.20;;;23.60;99.90;;;;;;4945864;29;20207;-79
2023/09/18 12:03:24;;;;;;;6.13;2.67;;;23.70;99.90;;;;;;4946256;29;20207;-79
2023/09/18 12:05:53;;;;;;;5.88;2.70;;;23.70;99.90;;;;;;4947011;29;20655;-77
2023/09/18 12:08:20;;;;;;;7.00;2.95;;;23.80;99.90;;;;;;4965186;29;20574;-79
2023/09/18 12:10:50;;;;;;;8.30;2.72;;;23.80;99.90;;;;;;4964212;29;20233;-78
2023/09/18 12:13:18;;;;;;;6.05;2.70;;;23.90;99.90;;;;;;4963689;29;20213;-78
2023/09/18 12:15:45;;;;;;;7.55;3.10;;;23.90;99.90;;;;;;4964060;29;20234;-78
2023/09/18 12:18:13;;;;;;;5.72;2.47;;;24.00;99.90;;;;;;4964443;29;20222;-77
2023/09/18 12:20:47;;;;;;;5.68;2.28;;;24.20;99.90;;;;;;4965856;29;20210;-78
2023/09/18 12:23:14;;;;;;;3.08;2.38;;;24.40;99.90;;;;;;4965565;29;20195;-78
2023/09/18 12:25:41;;;;;;;4.93;2.22;;;24.30;99.90;;;;;;4963913;29;20218;-78
2023/09/18 12:28:08;;;;;;;7.50;2.40;;;24.10;99.90;;;;;;4964339;29;20227;-79
2023/09/18 12:30:37;;;;;;;3.88;2.17;;;24.00;99.90;;;;;;4947424;29;20242;-78
2023/09/18 12:33:05;;;;;;;4.90;2.40;;;23.90;99.90;;;;;;4943481;29;20275;-77
2023/09/18 12:35:32;;;;;;;6.15;2.80;;;23.90;99.90;;;;;;4944058;29;20234;-79
2023/09/18 12:38:00;;;;;;;3.92;2.10;;;23.80;99.90;;;;;;4944029;29;20313;-79
2023/09/18 12:40:28;;;;;;;9.57;4.88;;;23.90;99.90;;;;;;4945066;29;20211;-79
2023/09/18 12:42:56;;;;;;;6.60;2.80;;;24.10;99.90;;;;;;4930661;29;20211;-79
2023/09/18 12:45:24;;;;;;;5.07;2.42;;;23.90;99.90;;;;;;4941716;29;20234;-79
2023/09/18 12:47:55;;;;;;;4.63;2.58;;;23.70;99.90;;;;;;4943405;29;20226;-79
2023/09/18 12:50:22;;;;;;;7.38;2.70;;;23.60;99.90;;;;;;4943399;29;20219;-79